createdAt,value
2022-09-03T00:00:15.022Z,5.43
2022-09-03T00:02:21.717Z,4.82
2022-09-03T00:04:31.310Z,4.68
2022-09-03T00:07:02.479Z,6.72
2022-09-03T00:09:07.266Z,6.25
2022-09-03T00:11:22.099Z,5.70
2022-09-03T00:13:25.917Z,5.13
2022-09-03T00:15:27.836Z,4.45
2022-09-03T00:17:35.015Z,5.45
2022-09-03T00:19:39.847Z,4.63
2022-09-03T00:21:44.113Z,3.78
2022-09-03T00:23:48.102Z,4.70
2022-09-03T00:27:54.459Z,4.07
2022-09-03T00:30:08.603Z,6.88
2022-09-03T00:32:14.915Z,5.15
2022-09-03T00:34:21.257Z,4.60
2022-09-03T00:36:34.629Z,9.15
2022-09-03T00:38:44.112Z,3.33
2022-09-03T00:41:10.719Z,2.65
2022-09-03T00:43:28.202Z,2.78
2022-09-03T00:45:40.449Z,2.28
2022-09-03T00:48:02.852Z,2.40
2022-09-03T00:50:15.466Z,1.95
2022-09-03T00:52:33.402Z,3.05
2022-09-03T00:54:45.634Z,3.35
2022-09-03T00:56:58.271Z,4.57
2022-09-03T00:59:04.345Z,2.83
2022-09-03T01:01:15.677Z,3.30
2022-09-03T01:03:24.164Z,2.75
2022-09-03T01:06:01.864Z,3.83
2022-09-03T01:08:08.874Z,3.50
2022-09-03T01:10:28.277Z,3.55
2022-09-03T01:12:38.398Z,5.82
2022-09-03T01:14:54.269Z,2.38
2022-09-03T01:16:56.251Z,3.90
2022-09-03T01:18:57.735Z,5.15
2022-09-03T01:20:59.358Z,2.85
2022-09-03T01:23:04.205Z,4.15
2022-09-03T01:25:32.191Z,2.83
2022-09-03T01:27:49.711Z,3.30
2022-09-03T01:30:18.606Z,4.93
2022-09-03T01:32:24.953Z,3.30
2022-09-03T01:34:26.473Z,2.88
2022-09-03T01:36:50.811Z,3.25
2022-09-03T01:38:55.356Z,3.00
2022-09-03T01:41:35.738Z,3.85
2022-09-03T01:43:51.198Z,2.72
2022-09-03T01:45:54.105Z,3.30
2022-09-03T01:48:11.991Z,3.55
2022-09-03T01:50:20.825Z,3.95
2022-09-03T01:52:45.150Z,3.50
2022-09-03T01:55:06.242Z,3.83
2022-09-03T01:57:37.321Z,4.25
2022-09-03T01:59:45.039Z,4.40
2022-09-03T02:02:07.998Z,4.85
2022-09-03T02:04:18.597Z,3.00
2022-09-03T02:06:20.962Z,8.20
2022-09-03T02:08:22.575Z,3.53
2022-09-03T02:10:30.376Z,6.68
2022-09-03T02:12:33.862Z,2.53
2022-09-03T02:14:35.933Z,2.27
2022-09-03T02:16:37.407Z,4.03
2022-09-03T02:18:42.125Z,8.77
2022-09-03T02:20:43.991Z,3.78
2022-09-03T02:22:45.862Z,3.22
2022-09-03T02:24:47.431Z,10.25
2022-09-03T02:26:49.087Z,2.88
2022-09-03T02:28:51.344Z,3.17
2022-09-03T02:30:53.039Z,7.82
2022-09-03T02:32:54.615Z,4.85
2022-09-03T02:34:56.438Z,3.38
2022-09-03T02:36:57.943Z,3.78
2022-09-03T02:38:59.589Z,4.65
2022-09-03T02:41:01.118Z,3.75
2022-09-03T02:43:04.306Z,6.22
2022-09-03T02:45:25.865Z,3.45
2022-09-03T02:47:31.950Z,3.67
2022-09-03T02:49:33.847Z,4.78
2022-09-03T02:51:42.803Z,5.00
2022-09-03T02:53:44.445Z,17.95
2022-09-03T02:55:46.558Z,22.00
2022-09-03T02:57:48.158Z,19.90
2022-09-03T02:59:49.866Z,16.50
2022-09-03T03:01:51.398Z,7.65
2022-09-03T03:03:53.288Z,10.77
2022-09-03T03:05:56.815Z,10.40
2022-09-03T03:07:58.685Z,9.32
2022-09-03T03:10:00.409Z,8.73
2022-09-03T03:12:02.367Z,9.70
2022-09-03T03:14:03.953Z,10.57
2022-09-03T03:16:08.713Z,6.90
2022-09-03T03:18:12.161Z,7.78
2022-09-03T03:20:13.838Z,6.13
2022-09-03T03:22:15.578Z,10.82
2022-09-03T03:24:17.219Z,8.65
2022-09-03T03:26:19.699Z,9.18
2022-09-03T03:28:21.534Z,10.00
2022-09-03T03:30:23.383Z,9.27
2022-09-03T03:32:24.910Z,6.43
2022-09-03T03:34:26.677Z,8.63
2022-09-03T03:36:29.699Z,7.03
2022-09-03T03:38:31.489Z,7.32
2022-09-03T03:40:42.583Z,8.23
2022-09-03T03:42:54.736Z,8.63
2022-09-03T03:45:07.173Z,12.07
2022-09-03T03:47:20.850Z,9.25
2022-09-03T03:49:31.746Z,7.43
2022-09-03T03:51:42.625Z,8.10
2022-09-03T03:53:51.399Z,7.68
2022-09-03T03:56:01.810Z,6.20
2022-09-03T03:58:11.532Z,8.35
2022-09-03T04:00:21.894Z,7.22
2022-09-03T04:02:38.503Z,8.57
2022-09-03T04:04:41.917Z,8.05
2022-09-03T04:06:43.466Z,6.70
2022-09-03T04:08:46.518Z,12.45
2022-09-03T04:10:49.032Z,6.55
2022-09-03T04:12:53.852Z,9.38
2022-09-03T04:14:55.471Z,7.50
2022-09-03T04:16:57.331Z,7.95
2022-09-03T04:18:59.569Z,7.95
2022-09-03T04:21:04.252Z,6.63
2022-09-03T04:23:06.159Z,8.65
2022-09-03T04:25:08.006Z,9.45
2022-09-03T04:27:09.554Z,9.93
2022-09-03T04:29:11.202Z,9.85
2022-09-03T04:31:14.124Z,10.98
2022-09-03T04:33:15.915Z,12.45
2022-09-03T04:35:17.945Z,12.40
2022-09-03T04:37:20.396Z,10.75
2022-09-03T04:39:21.975Z,14.95
2022-09-03T04:41:27.787Z,22.88
2022-09-03T04:43:29.635Z,28.70
2022-09-03T04:45:31.247Z,80.28
2022-09-03T04:47:33.037Z,71.55
2022-09-03T04:49:34.868Z,73.85
2022-09-03T04:51:38.632Z,92.60
2022-09-03T04:53:41.927Z,130.32
2022-09-03T04:55:43.535Z,228.77
2022-09-03T04:57:45.025Z,107.68
2022-09-03T04:59:46.662Z,88.55
2022-09-03T05:01:48.272Z,72.00
2022-09-03T05:03:52.400Z,64.97
2022-09-03T05:07:58.044Z,42.60
2022-09-03T05:09:59.642Z,98.93
2022-09-03T05:12:01.131Z,46.65
2022-09-03T05:14:03.192Z,48.60
2022-09-03T05:16:06.869Z,43.92
2022-09-03T05:18:08.466Z,32.78
2022-09-03T05:20:10.442Z,32.90
2022-09-03T05:22:12.033Z,33.42
2022-09-03T05:24:15.330Z,27.40
2022-09-03T05:26:18.203Z,27.83
2022-09-03T05:28:19.702Z,31.63
2022-09-03T05:30:23.622Z,36.90
2022-09-03T05:32:25.484Z,32.28
2022-09-03T05:34:27.691Z,28.50
2022-09-03T05:36:30.823Z,30.33
2022-09-03T05:38:32.809Z,32.40
2022-09-03T05:40:34.315Z,30.67
2022-09-03T05:42:38.038Z,29.40
2022-09-03T05:44:39.589Z,29.25
2022-09-03T05:46:41.175Z,30.48
2022-09-03T05:48:43.244Z,30.40
2022-09-03T05:50:44.799Z,29.42
2022-09-03T05:52:46.421Z,27.95
2022-09-03T05:54:48.355Z,29.48
2022-09-03T05:56:50.045Z,34.00
2022-09-03T05:58:52.971Z,30.80
2022-09-03T06:00:54.742Z,28.25
2022-09-03T06:02:56.342Z,27.83
2022-09-03T06:04:58.483Z,30.75
2022-09-03T06:07:00.068Z,33.03
2022-09-03T06:09:03.342Z,37.53
2022-09-03T06:11:04.967Z,31.45
2022-09-03T06:13:06.706Z,29.85
2022-09-03T06:15:08.520Z,27.58
2022-09-03T06:17:11.487Z,28.13
2022-09-03T06:19:14.306Z,27.60
2022-09-03T06:21:16.016Z,26.13
2022-09-03T06:23:18.300Z,31.05
2022-09-03T06:25:19.851Z,30.50
2022-09-03T06:27:21.651Z,30.30
2022-09-03T06:29:23.511Z,25.38
2022-09-03T06:31:25.417Z,22.85
2022-09-03T06:33:27.020Z,26.42
2022-09-03T06:35:28.735Z,25.98
2022-09-03T06:37:32.902Z,24.27
2022-09-03T06:39:34.687Z,23.35
2022-09-03T06:41:36.287Z,22.42
2022-09-03T06:43:38.974Z,23.25
2022-09-03T06:45:42.254Z,21.65
2022-09-03T06:50:03.012Z,20.60
2022-09-03T06:52:13.425Z,21.73
2022-09-03T06:54:23.882Z,21.08
2022-09-03T06:56:38.887Z,19.75
2022-09-03T06:58:53.913Z,18.58
2022-09-03T07:01:13.731Z,19.02
2022-09-03T07:03:25.038Z,21.92
2022-09-03T07:05:39.630Z,16.77
2022-09-03T07:07:51.027Z,19.10
2022-09-03T07:10:00.237Z,15.65
2022-09-03T07:12:03.502Z,20.33
2022-09-03T07:14:05.167Z,18.92
2022-09-03T07:16:08.066Z,18.05
2022-09-03T07:18:10.008Z,16.48
2022-09-03T07:20:11.583Z,19.67
2022-09-03T07:22:13.115Z,18.63
2022-09-03T07:24:15.282Z,19.60
2022-09-03T07:26:19.897Z,19.08
2022-09-03T07:28:21.728Z,19.85
2022-09-03T07:30:23.342Z,21.35
2022-09-03T07:32:24.915Z,19.90
2022-09-03T07:34:26.832Z,23.17
2022-09-03T07:36:30.487Z,17.58
2022-09-03T07:38:37.067Z,23.05
2022-09-03T07:40:39.451Z,19.17
2022-09-03T07:42:41.722Z,20.38
2022-09-03T07:44:43.302Z,19.08
2022-09-03T07:46:46.289Z,26.05
2022-09-03T07:48:49.153Z,17.97
2022-09-03T07:50:51.035Z,19.73
2022-09-03T07:52:59.252Z,20.45
2022-09-03T07:55:00.818Z,20.48
2022-09-03T07:57:02.635Z,20.95
2022-09-03T07:59:04.515Z,21.58
2022-09-03T08:01:11.135Z,20.25
2022-09-03T08:03:13.279Z,19.33
2022-09-03T08:05:15.251Z,17.48
2022-09-03T08:07:17.041Z,17.27
2022-09-03T08:09:18.596Z,16.75
2022-09-03T08:11:21.622Z,16.73
2022-09-03T08:13:23.127Z,19.02
2022-09-03T08:15:28.779Z,15.32
2022-09-03T08:17:30.330Z,21.30
2022-09-03T08:19:32.074Z,16.00
2022-09-03T08:21:33.815Z,16.25
2022-09-03T08:23:38.742Z,13.90
2022-09-03T08:25:40.559Z,14.77
2022-09-03T08:27:42.548Z,13.75
2022-09-03T08:29:46.860Z,15.98
2022-09-03T08:31:48.853Z,12.68
2022-09-03T08:33:53.850Z,11.15
2022-09-03T08:35:55.568Z,12.20
2022-09-03T08:37:57.154Z,12.57
2022-09-03T08:40:00.535Z,14.77
2022-09-03T08:42:10.514Z,11.85
2022-09-03T08:44:28.323Z,8.00
2022-09-03T08:46:48.285Z,7.00
2022-09-03T08:48:50.203Z,8.07
2022-09-03T08:50:56.050Z,6.70
2022-09-03T08:53:02.175Z,7.20
2022-09-03T08:55:06.503Z,7.25
2022-09-03T08:57:08.762Z,7.32
2022-09-03T08:59:10.271Z,6.13
2022-09-03T09:01:31.814Z,6.75
2022-09-03T09:03:33.607Z,5.88
2022-09-03T09:05:48.013Z,5.95
2022-09-03T09:07:59.486Z,5.57
2022-09-03T09:10:01.065Z,6.10
2022-09-03T09:12:08.950Z,5.80
2022-09-03T09:14:10.498Z,5.75
2022-09-03T09:16:32.453Z,6.18
2022-09-03T09:18:43.278Z,5.53
2022-09-03T09:20:48.965Z,7.07
2022-09-03T09:23:03.362Z,5.63
2022-09-03T09:25:14.271Z,4.70
2022-09-03T09:27:19.241Z,4.95
2022-09-03T09:29:20.831Z,5.03
2022-09-03T09:31:23.073Z,6.97
2022-09-03T09:33:25.500Z,13.77
2022-09-03T09:35:27.380Z,5.28
2022-09-03T09:37:29.184Z,5.53
2022-09-03T09:39:32.169Z,9.23
2022-09-03T09:41:33.763Z,6.15
2022-09-03T09:43:35.339Z,5.97
2022-09-03T09:45:40.800Z,7.20
2022-09-03T09:47:42.654Z,4.82
2022-09-03T09:49:52.503Z,11.68
2022-09-03T09:52:04.122Z,5.95
2022-09-03T09:54:21.593Z,5.75
2022-09-03T09:56:26.097Z,5.63
2022-09-03T09:58:32.250Z,5.70
2022-09-03T10:00:38.842Z,7.32
2022-09-03T10:02:48.292Z,6.15
2022-09-03T10:04:51.681Z,4.85
2022-09-03T10:06:56.292Z,4.22
2022-09-03T10:09:09.915Z,7.63
2022-09-03T10:11:14.160Z,6.78
2022-09-03T10:13:20.510Z,7.07
2022-09-03T10:15:30.171Z,7.88
2022-09-03T10:17:53.154Z,7.07
2022-09-03T10:20:14.795Z,4.35
2022-09-03T10:22:20.444Z,7.35
2022-09-03T10:24:41.002Z,5.85
2022-09-03T10:26:45.892Z,5.50
2022-09-03T10:28:51.150Z,5.55
2022-09-03T10:31:13.650Z,7.80
2022-09-03T10:33:19.042Z,7.40
2022-09-03T10:35:26.490Z,5.05
2022-09-03T10:37:46.846Z,8.43
2022-09-03T10:40:07.670Z,7.93
2022-09-03T10:42:28.186Z,13.85
2022-09-03T10:44:35.624Z,8.93
2022-09-03T10:46:45.309Z,13.82
2022-09-03T10:49:05.835Z,10.25
2022-09-03T10:51:17.224Z,13.03
2022-09-03T10:53:37.472Z,9.50
2022-09-03T10:55:47.230Z,12.23
2022-09-03T10:57:54.098Z,11.35
2022-09-03T10:59:58.166Z,10.80
2022-09-03T11:02:18.630Z,9.25
2022-09-03T11:04:39.223Z,8.35
2022-09-03T11:06:48.400Z,7.72
2022-09-03T11:09:04.476Z,11.20
2022-09-03T11:11:20.114Z,10.00
2022-09-03T11:13:25.231Z,12.85
2022-09-03T11:15:35.971Z,8.73
2022-09-03T11:17:40.105Z,9.10
2022-09-03T11:19:47.145Z,9.02
2022-09-03T11:21:49.615Z,7.60
2022-09-03T11:24:14.231Z,10.15
2022-09-03T11:26:18.862Z,10.93
2022-09-03T11:28:23.339Z,15.65
2022-09-03T11:30:29.548Z,15.90
2022-09-03T11:32:43.434Z,11.25
2022-09-03T11:34:47.665Z,7.47
2022-09-03T11:36:49.207Z,10.43
2022-09-03T11:38:50.854Z,12.07
2022-09-03T11:41:04.770Z,8.65
2022-09-03T11:45:14.924Z,7.80
2022-09-03T11:47:36.912Z,7.10
2022-09-03T11:49:44.276Z,9.68
2022-09-03T11:51:56.019Z,10.27
2022-09-03T11:54:02.170Z,10.55
2022-09-03T11:56:06.497Z,8.55
2022-09-03T11:58:13.635Z,7.00
2022-09-03T12:00:21.206Z,9.27
2022-09-03T12:02:23.045Z,11.80
2022-09-03T12:04:47.544Z,16.73
2022-09-03T12:06:54.975Z,10.43
2022-09-03T12:09:02.743Z,12.75
2022-09-03T12:11:39.312Z,13.68
2022-09-03T12:13:53.143Z,11.82
2022-09-03T12:15:54.999Z,10.68
2022-09-03T12:18:22.501Z,11.85
2022-09-03T12:20:27.813Z,6.88
2022-09-03T12:22:31.402Z,8.50
2022-09-03T12:24:38.354Z,9.23
2022-09-03T12:26:42.035Z,11.15
2022-09-03T12:28:46.006Z,11.23
2022-09-03T12:30:47.592Z,6.00
2022-09-03T12:32:51.426Z,10.38
2022-09-03T12:34:53.580Z,13.32
2022-09-03T12:36:55.349Z,8.80
2022-09-03T12:39:11.915Z,10.88
2022-09-03T12:41:26.632Z,10.52
2022-09-03T12:43:37.602Z,7.57
2022-09-03T12:48:15.671Z,7.75
2022-09-03T12:50:21.769Z,7.13
2022-09-03T12:52:35.550Z,6.90
2022-09-03T12:54:39.746Z,7.82
2022-09-03T12:56:49.596Z,8.40
2022-09-03T12:59:04.428Z,13.90
2022-09-03T13:01:17.311Z,8.60
2022-09-03T13:03:35.817Z,8.32
2022-09-03T13:05:48.887Z,7.30
2022-09-03T13:08:01.879Z,10.55
2022-09-03T13:10:11.790Z,13.23
2022-09-03T13:12:33.694Z,12.57
2022-09-03T13:14:52.655Z,10.18
2022-09-03T13:17:21.201Z,8.57
2022-09-03T13:19:32.839Z,9.23
2022-09-03T13:21:42.586Z,10.07
2022-09-03T13:23:53.361Z,9.40
2022-09-03T13:26:13.863Z,9.98
2022-09-03T13:28:34.287Z,8.95
2022-09-03T13:30:47.084Z,6.38
2022-09-03T13:33:03.578Z,11.95
2022-09-03T13:35:11.048Z,9.02
2022-09-03T13:37:24.406Z,10.77
2022-09-03T13:39:25.967Z,11.52
2022-09-03T13:41:46.256Z,12.40
2022-09-03T13:43:59.907Z,11.55
2022-09-03T13:46:08.245Z,11.10
2022-09-03T13:48:34.547Z,14.65
2022-09-03T13:50:42.291Z,12.57
2022-09-03T13:52:59.153Z,9.35
2022-09-03T13:55:07.009Z,13.27
2022-09-03T13:57:23.964Z,12.40
2022-09-03T13:59:29.631Z,16.67
2022-09-03T14:01:34.129Z,10.70
2022-09-03T14:03:39.236Z,10.98
2022-09-03T14:05:59.820Z,11.57
2022-09-03T14:08:08.898Z,6.75
2022-09-03T14:10:19.388Z,13.02
2022-09-03T14:12:42.445Z,7.68
2022-09-03T14:14:56.961Z,7.60
2022-09-03T14:17:21.944Z,7.95
2022-09-03T14:19:33.072Z,9.93
2022-09-03T14:21:40.213Z,10.38
2022-09-03T14:23:49.245Z,11.50
2022-09-03T14:25:58.047Z,6.97
2022-09-03T14:28:13.815Z,10.60
2022-09-03T14:30:15.950Z,11.23
2022-09-03T14:32:20.543Z,6.85
2022-09-03T14:34:40.024Z,11.38
2022-09-03T14:36:50.267Z,7.80
2022-09-03T14:39:04.886Z,8.88
2022-09-03T14:41:07.501Z,8.38
2022-09-03T14:43:21.517Z,9.32
2022-09-03T14:45:29.095Z,7.43
2022-09-03T14:47:39.753Z,9.13
2022-09-03T14:49:53.414Z,8.25
2022-09-03T14:52:01.336Z,8.52
2022-09-03T14:54:18.645Z,7.20
2022-09-03T14:56:31.112Z,6.53
2022-09-03T14:58:32.533Z,11.30
2022-09-03T15:00:42.578Z,8.35
2022-09-03T15:02:44.223Z,5.82
2022-09-03T15:04:59.904Z,10.32
2022-09-03T15:07:19.841Z,10.77
2022-09-03T15:09:24.665Z,11.80
2022-09-03T15:11:33.909Z,11.13
2022-09-03T15:13:55.987Z,7.68
2022-09-03T15:16:01.349Z,9.65
2022-09-03T15:18:26.601Z,7.10
2022-09-03T15:20:28.186Z,9.70
2022-09-03T15:22:50.175Z,12.40
2022-09-03T15:24:59.272Z,10.45
2022-09-03T15:27:10.243Z,10.40
2022-09-03T15:29:11.838Z,8.18
2022-09-03T15:31:13.398Z,11.00
2022-09-03T15:33:28.374Z,7.15
2022-09-03T15:35:33.753Z,5.82
2022-09-03T15:37:45.868Z,8.88
2022-09-03T15:39:57.778Z,8.70
2022-09-03T15:42:01.640Z,6.90
2022-09-03T15:44:05.745Z,11.73
2022-09-03T15:46:13.789Z,7.82
2022-09-03T15:48:21.946Z,11.43
2022-09-03T15:50:32.933Z,9.10
2022-09-03T15:52:54.690Z,7.75
2022-09-03T15:54:56.543Z,6.35
2022-09-03T15:57:01.375Z,8.90
2022-09-03T15:59:07.443Z,7.55
2022-09-03T16:01:12.082Z,9.27
2022-09-03T16:03:23.162Z,3.95
2022-09-03T16:05:38.199Z,4.72
2022-09-03T16:07:56.952Z,6.55
2022-09-03T16:10:34.663Z,6.60
2022-09-03T16:13:03.349Z,10.23
2022-09-03T16:15:20.669Z,4.97
2022-09-03T16:17:59.275Z,4.60
2022-09-03T16:20:14.178Z,6.05
2022-09-03T16:22:38.847Z,4.93
2022-09-03T16:24:47.129Z,7.13
2022-09-03T16:27:01.215Z,3.63
2022-09-03T16:29:09.039Z,3.97
2022-09-03T16:31:29.352Z,6.38
2022-09-03T16:33:40.810Z,2.72
2022-09-03T16:36:01.670Z,2.25
2022-09-03T16:38:03.136Z,8.77
2022-09-03T16:40:14.945Z,5.82
2022-09-03T16:42:47.012Z,6.00
2022-09-03T16:45:00.005Z,5.65
2022-09-03T16:47:08.043Z,2.42
2022-09-03T16:49:09.645Z,5.65
2022-09-03T16:51:16.053Z,2.63
2022-09-03T16:53:35.738Z,5.70
2022-09-03T16:55:59.039Z,3.63
2022-09-03T16:58:18.998Z,4.78
2022-09-03T17:00:21.277Z,2.92
2022-09-03T17:02:40.101Z,2.83
2022-09-03T17:04:48.595Z,2.10
2022-09-03T17:06:50.290Z,3.95
2022-09-03T17:09:15.867Z,7.63
2022-09-03T17:11:17.416Z,5.82
2022-09-03T17:13:28.429Z,3.92
2022-09-03T17:15:37.214Z,5.13
2022-09-03T17:18:03.697Z,8.48
2022-09-03T17:20:06.114Z,2.85
2022-09-03T17:22:07.598Z,5.25
2022-09-03T17:24:09.066Z,1.80
2022-09-03T17:26:13.509Z,3.45
2022-09-03T17:28:27.539Z,4.43
2022-09-03T17:30:49.593Z,4.07
2022-09-03T17:33:04.990Z,8.15
2022-09-03T17:35:12.942Z,5.85
2022-09-03T17:37:18.623Z,5.72
2022-09-03T17:39:38.748Z,5.72
2022-09-03T17:41:58.733Z,7.78
2022-09-03T17:44:05.542Z,3.28
2022-09-03T17:46:26.210Z,6.80
2022-09-03T17:48:42.375Z,5.82
2022-09-03T17:50:47.691Z,4.35
2022-09-03T17:53:04.467Z,7.47
2022-09-03T17:55:14.325Z,4.97
2022-09-03T17:57:30.828Z,4.28
2022-09-03T17:59:51.285Z,5.90
2022-09-03T18:02:04.457Z,5.63
2022-09-03T18:04:28.674Z,5.90
2022-09-03T18:06:36.253Z,4.50
2022-09-03T18:08:46.159Z,4.30
2022-09-03T18:10:54.082Z,4.55
2022-09-03T18:13:15.375Z,3.50
2022-09-03T18:15:22.367Z,4.95
2022-09-03T18:17:39.580Z,10.02
2022-09-03T18:20:20.462Z,7.63
2022-09-03T18:22:44.474Z,6.35
2022-09-03T18:25:12.294Z,3.45
2022-09-03T18:27:47.727Z,7.80
2022-09-03T18:30:27.590Z,7.95
2022-09-03T18:32:48.765Z,5.55
2022-09-03T18:35:08.861Z,4.95
2022-09-03T18:37:34.378Z,9.73
2022-09-03T18:39:54.707Z,7.70
2022-09-03T18:42:30.536Z,6.93
2022-09-03T18:45:22.501Z,6.70
2022-09-03T18:48:02.515Z,7.97
2022-09-03T18:50:32.030Z,4.18
2022-09-03T18:52:55.382Z,8.68
2022-09-03T18:55:24.528Z,6.88
2022-09-03T18:57:48.046Z,10.43
2022-09-03T19:00:17.530Z,6.10
2022-09-03T19:02:52.359Z,6.43
2022-09-03T19:05:34.859Z,6.88
2022-09-03T19:08:01.984Z,5.60
2022-09-03T19:10:31.521Z,5.07
2022-09-03T19:13:09.758Z,5.05
2022-09-03T19:15:54.691Z,5.45
2022-09-03T19:18:41.340Z,12.00
2022-09-03T19:21:14.870Z,15.00
2022-09-03T19:23:41.023Z,7.55
2022-09-03T19:26:10.104Z,7.32
2022-09-03T19:28:40.108Z,5.53
2022-09-03T19:31:19.453Z,7.30
2022-09-03T19:33:51.140Z,6.15
2022-09-03T19:36:24.367Z,6.00
2022-09-03T19:38:44.576Z,6.28
2022-09-03T19:41:05.006Z,8.27
2022-09-03T19:43:37.127Z,6.25
2022-09-03T19:45:57.477Z,6.55
2022-09-03T19:48:23.607Z,5.88
2022-09-03T19:50:49.334Z,8.13
2022-09-03T19:53:12.475Z,8.70
2022-09-03T19:55:35.370Z,7.75
2022-09-03T19:57:56.059Z,8.98
2022-09-03T20:00:17.142Z,4.38
2022-09-03T20:02:43.820Z,7.13
2022-09-03T20:05:06.091Z,6.00
2022-09-03T20:07:28.553Z,3.95
2022-09-03T20:09:51.343Z,5.43
2022-09-03T20:11:56.292Z,8.07
2022-09-03T20:14:14.074Z,6.32
2022-09-03T20:16:26.121Z,6.30
2022-09-03T20:18:44.203Z,5.95
2022-09-03T20:21:00.032Z,9.13
2022-09-03T20:23:04.807Z,3.70
2022-09-03T20:25:07.458Z,6.97
2022-09-03T20:27:18.264Z,6.25
2022-09-03T20:29:44.690Z,6.97
2022-09-03T20:31:52.658Z,9.25
2022-09-03T20:33:56.996Z,9.18
2022-09-03T20:35:58.702Z,7.35
2022-09-03T20:38:08.818Z,9.93
2022-09-03T20:40:16.632Z,6.20
2022-09-03T20:42:31.685Z,5.70
2022-09-03T20:44:43.331Z,5.88
2022-09-03T20:46:56.974Z,9.13
2022-09-03T20:49:04.420Z,11.02
2022-09-03T20:51:21.932Z,5.65
2022-09-03T20:53:50.238Z,12.10
2022-09-03T20:55:54.527Z,6.70
2022-09-03T20:57:59.148Z,7.88
2022-09-03T21:00:00.651Z,5.93
2022-09-03T21:02:05.027Z,6.97
2022-09-03T21:04:25.354Z,7.53
2022-09-03T21:06:27.063Z,11.80
2022-09-03T21:08:47.174Z,4.82
2022-09-03T21:10:55.049Z,6.55
2022-09-03T21:13:05.552Z,7.32
2022-09-03T21:15:10.183Z,9.43
2022-09-03T21:17:15.760Z,9.40
2022-09-03T21:19:37.905Z,5.72
2022-09-03T21:21:45.976Z,9.38
2022-09-03T21:23:50.728Z,12.38
2022-09-03T21:25:56.037Z,6.70
2022-09-03T21:28:08.759Z,6.90
2022-09-03T21:30:14.642Z,13.35
2022-09-03T21:32:17.609Z,10.38
2022-09-03T21:34:20.634Z,11.43
2022-09-03T21:36:30.284Z,11.37
2022-09-03T21:38:33.443Z,6.47
2022-09-03T21:40:38.261Z,11.45
2022-09-03T21:42:46.145Z,11.18
2022-09-03T21:44:52.417Z,13.65
2022-09-03T21:46:56.674Z,13.35
2022-09-03T21:48:59.927Z,14.18
2022-09-03T21:51:04.559Z,14.93
2022-09-03T21:53:09.630Z,11.43
2022-09-03T21:55:30.054Z,15.93
2022-09-03T21:57:34.822Z,13.60
2022-09-03T21:59:42.298Z,10.55
2022-09-03T22:01:54.607Z,17.58
2022-09-03T22:03:56.174Z,14.63
2022-09-03T22:06:00.535Z,18.92
2022-09-03T22:08:20.674Z,16.80
2022-09-03T22:10:31.983Z,20.65
2022-09-03T22:12:40.499Z,20.67
2022-09-03T22:14:48.094Z,25.08
2022-09-03T22:17:03.761Z,14.68
2022-09-03T22:19:09.202Z,21.88
2022-09-03T22:21:21.006Z,16.55
2022-09-03T22:23:30.529Z,29.48
2022-09-03T22:25:34.619Z,23.65
2022-09-03T22:28:01.904Z,21.73
2022-09-03T22:30:06.961Z,29.42
2022-09-03T22:32:25.094Z,18.55
2022-09-03T22:34:39.563Z,21.48
2022-09-03T22:36:49.174Z,16.80
2022-09-03T22:38:53.906Z,19.63
2022-09-03T22:41:00.264Z,20.02
2022-09-03T22:43:05.269Z,24.67
2022-09-03T22:45:12.785Z,18.75
2022-09-03T22:47:22.930Z,21.02
2022-09-03T22:49:25.587Z,24.50
2022-09-03T22:51:30.683Z,26.00
2022-09-03T22:53:34.980Z,19.98
2022-09-03T22:55:38.247Z,20.27
2022-09-03T22:57:49.720Z,15.82
2022-09-03T23:00:00.689Z,23.00
2022-09-03T23:02:08.619Z,19.50
2022-09-03T23:04:16.507Z,24.77
2022-09-03T23:06:26.650Z,22.65
2022-09-03T23:08:32.032Z,16.98
2022-09-03T23:10:36.206Z,25.75
2022-09-03T23:12:48.854Z,20.65
2022-09-03T23:14:56.504Z,22.58
2022-09-03T23:17:04.399Z,25.00
2022-09-03T23:19:38.927Z,17.27
2022-09-03T23:21:41.079Z,19.65
2022-09-03T23:23:46.967Z,22.13
2022-09-03T23:25:54.552Z,18.88
2022-09-03T23:27:56.037Z,21.90
2022-09-03T23:30:00.487Z,19.20
2022-09-03T23:32:05.403Z,23.50
2022-09-03T23:34:08.889Z,21.17
2022-09-03T23:36:27.014Z,24.77
2022-09-03T23:38:44.367Z,20.85
2022-09-03T23:40:53.271Z,19.85
2022-09-03T23:43:03.870Z,22.67
2022-09-03T23:45:15.532Z,19.27
2022-09-03T23:47:17.392Z,19.48
2022-09-03T23:49:36.349Z,20.90
2022-09-03T23:51:38.026Z,20.02
2022-09-03T23:53:39.493Z,20.40
2022-09-03T23:55:41.031Z,20.45
2022-09-03T23:57:49.437Z,15.43
2022-09-03T23:59:51.111Z,20.55
